createdAt,value
2023-04-02T00:00:26.380Z,7.34
2023-04-02T00:04:30.175Z,7.28
2023-04-02T00:08:41.193Z,7.26
2023-04-02T00:13:00.917Z,7.24
2023-04-02T00:17:06.971Z,7.26
2023-04-02T00:21:15.446Z,7.24
2023-04-02T00:25:18.699Z,7.19
2023-04-02T00:29:23.112Z,7.15
2023-04-02T00:33:29.776Z,7.13
2023-04-02T00:37:39.338Z,7.15
2023-04-02T00:41:46.695Z,7.17
2023-04-02T00:45:57.222Z,7.15
2023-04-02T00:50:07.182Z,7.16
2023-04-02T00:54:15.904Z,7.12
2023-04-02T00:58:33.923Z,7.04
2023-04-02T01:02:40.858Z,6.96
2023-04-02T01:06:46.157Z,6.91
2023-04-02T01:11:04.541Z,6.95
2023-04-02T01:15:13.989Z,6.86
2023-04-02T01:19:58.594Z,6.80
2023-04-02T01:24:06.255Z,6.78
2023-04-02T01:28:19.652Z,6.79
2023-04-02T01:32:26.979Z,6.82
2023-04-02T01:36:40.838Z,6.72
2023-04-02T01:40:49.576Z,6.75
2023-04-02T01:44:54.672Z,6.67
2023-04-02T01:49:03.599Z,6.56
2023-04-02T01:53:10.858Z,6.59
2023-04-02T01:57:14.879Z,6.54
2023-04-02T02:01:21.893Z,6.49
2023-04-02T02:05:29.484Z,6.51
2023-04-02T02:09:36.664Z,6.49
2023-04-02T02:13:42.119Z,6.39
2023-04-02T02:17:46.012Z,6.37
2023-04-02T02:21:52.567Z,6.35
2023-04-02T02:25:56.168Z,6.35
2023-04-02T02:30:05.610Z,6.35
2023-04-02T02:34:17.655Z,6.26
2023-04-02T02:38:30.682Z,6.29
2023-04-02T02:42:43.485Z,6.28
2023-04-02T02:46:52.686Z,6.22
2023-04-02T02:50:57.452Z,6.20
2023-04-02T02:55:06.520Z,6.22
2023-04-02T02:59:22.482Z,6.18
2023-04-02T03:03:30.188Z,6.09
2023-04-02T03:07:37.436Z,6.03
2023-04-02T03:11:48.551Z,6.03
2023-04-02T03:16:03.488Z,6.00
2023-04-02T03:20:16.135Z,6.05
2023-04-02T03:24:30.452Z,6.01
2023-04-02T03:28:41.256Z,6.02
2023-04-02T03:32:46.290Z,6.04
2023-04-02T03:36:57.892Z,6.05
2023-04-02T03:41:06.452Z,6.06
2023-04-02T03:45:19.540Z,5.96
2023-04-02T03:49:30.521Z,5.87
2023-04-02T03:53:34.269Z,5.88
2023-04-02T03:57:43.438Z,5.83
2023-04-02T04:01:57.118Z,5.82
2023-04-02T04:06:03.408Z,5.81
2023-04-02T04:10:08.799Z,5.81
2023-04-02T04:14:18.546Z,5.83
2023-04-02T04:18:35.105Z,5.82
2023-04-02T04:22:42.932Z,5.76
2023-04-02T04:26:56.137Z,5.87
2023-04-02T04:31:04.392Z,5.78
2023-04-02T04:35:24.980Z,5.66
2023-04-02T04:39:38.003Z,5.63
2023-04-02T04:43:47.860Z,5.61
2023-04-02T04:47:58.626Z,5.62
2023-04-02T04:52:16.208Z,5.56
2023-04-02T04:56:25.794Z,5.60
2023-04-02T05:00:43.244Z,5.63
2023-04-02T05:04:51.626Z,5.62
2023-04-02T05:09:02.420Z,5.58
2023-04-02T05:13:12.388Z,5.59
2023-04-02T05:17:22.918Z,5.59
2023-04-02T05:21:33.303Z,5.53
2023-04-02T05:25:53.182Z,5.39
2023-04-02T05:30:34.101Z,5.28
2023-04-02T05:34:40.509Z,5.30
2023-04-02T05:38:47.706Z,5.26
2023-04-02T05:42:58.672Z,5.23
2023-04-02T05:47:07.380Z,5.22
2023-04-02T05:51:17.361Z,5.23
2023-04-02T05:55:38.617Z,5.25
2023-04-02T05:59:46.981Z,5.22
2023-04-02T06:04:01.265Z,5.21
2023-04-02T06:08:13.105Z,5.14
2023-04-02T06:12:26.542Z,5.17
2023-04-02T06:16:34.556Z,5.04
2023-04-02T06:20:39.184Z,4.94
2023-04-02T06:24:42.825Z,4.95
2023-04-02T06:28:48.592Z,4.96
2023-04-02T06:32:55.544Z,4.95
2023-04-02T06:37:01.776Z,4.93
2023-04-02T06:41:14.479Z,4.92
2023-04-02T06:45:42.223Z,4.92
2023-04-02T06:50:20.282Z,4.79
2023-04-02T06:54:24.677Z,4.91
2023-04-02T06:58:33.014Z,4.83
2023-04-02T07:02:40.921Z,4.79
2023-04-02T07:06:48.657Z,4.84
2023-04-02T07:10:53.035Z,4.90
2023-04-02T07:14:56.365Z,5.02
2023-04-02T07:19:00.610Z,4.94
2023-04-02T07:23:09.334Z,4.92
2023-04-02T07:27:14.259Z,4.85
2023-04-02T07:31:19.127Z,4.81
2023-04-02T07:35:22.824Z,4.93
2023-04-02T07:39:27.238Z,4.87
2023-04-02T07:43:31.260Z,4.96
2023-04-02T07:47:34.765Z,5.04
2023-04-02T07:51:38.115Z,4.93
2023-04-02T07:55:42.809Z,4.81
2023-04-02T07:59:46.396Z,4.88
2023-04-02T08:03:50.025Z,4.82
2023-04-02T08:07:56.164Z,4.92
2023-04-02T08:12:00.660Z,4.88
2023-04-02T08:16:05.730Z,5.00
2023-04-02T08:20:12.005Z,5.10
2023-04-02T08:24:15.070Z,5.19
2023-04-02T08:28:19.590Z,5.02
2023-04-02T08:32:24.195Z,4.95
2023-04-02T08:36:31.616Z,4.99
2023-04-02T08:40:38.366Z,5.12
2023-04-02T08:44:53.498Z,5.08
2023-04-02T08:49:00.754Z,5.24
2023-04-02T08:53:09.431Z,5.22
2023-04-02T08:57:23.041Z,5.11
2023-04-02T09:01:38.416Z,5.20
2023-04-02T09:05:44.390Z,5.33
2023-04-02T09:09:49.887Z,5.29
2023-04-02T09:13:57.297Z,5.35
2023-04-02T09:18:13.357Z,5.35
2023-04-02T09:22:21.889Z,5.51
2023-04-02T09:26:28.834Z,5.89
2023-04-02T09:30:43.929Z,5.93
2023-04-02T09:34:48.634Z,5.65
2023-04-02T09:39:01.592Z,5.81
2023-04-02T09:43:11.905Z,5.63
2023-04-02T09:47:27.469Z,5.80
2023-04-02T09:51:34.437Z,5.57
2023-04-02T09:55:38.801Z,5.96
2023-04-02T09:59:42.209Z,5.89
2023-04-02T10:03:46.599Z,5.86
2023-04-02T10:07:53.179Z,6.15
2023-04-02T10:11:57.498Z,6.04
2023-04-02T10:16:05.061Z,6.21
2023-04-02T10:20:18.945Z,6.61
2023-04-02T10:24:28.574Z,6.50
2023-04-02T10:28:45.187Z,6.21
2023-04-02T10:32:56.760Z,6.17
2023-04-02T10:37:08.459Z,6.29
2023-04-02T10:41:28.027Z,6.46
2023-04-02T10:45:41.295Z,6.37
2023-04-02T10:49:55.821Z,6.44
2023-04-02T10:54:07.437Z,6.52
2023-04-02T10:58:21.875Z,6.53
2023-04-02T11:02:37.551Z,6.65
2023-04-02T11:06:47.447Z,6.57
2023-04-02T11:10:57.090Z,6.44
2023-04-02T11:15:02.242Z,6.84
2023-04-02T11:19:24.631Z,6.63
2023-04-02T11:23:36.221Z,6.48
2023-04-02T11:27:39.422Z,6.52
2023-04-02T11:31:45.898Z,6.43
2023-04-02T11:35:49.099Z,6.58
2023-04-02T11:39:57.297Z,6.48
2023-04-02T11:44:03.483Z,6.48
2023-04-02T11:48:29.408Z,6.55
2023-04-02T11:52:36.866Z,6.68
2023-04-02T11:56:48.297Z,6.64
2023-04-02T12:01:05.073Z,6.65
2023-04-02T12:05:20.676Z,6.85
2023-04-02T12:09:26.034Z,6.73
2023-04-02T12:13:49.665Z,6.85
2023-04-02T12:17:53.108Z,6.82
2023-04-02T12:22:00.607Z,6.87
2023-04-02T12:26:07.557Z,7.10
2023-04-02T12:30:17.977Z,6.99
2023-04-02T12:34:24.064Z,7.24
2023-04-02T12:38:31.024Z,7.18
2023-04-02T12:42:37.087Z,7.15
2023-04-02T12:46:41.396Z,7.37
2023-04-02T12:50:45.773Z,7.00
2023-04-02T12:54:52.840Z,7.25
2023-04-02T12:58:58.063Z,7.34
2023-04-02T13:03:14.729Z,7.12
2023-04-02T13:07:19.466Z,7.14
2023-04-02T13:11:24.638Z,7.31
2023-04-02T13:15:32.248Z,7.24
2023-04-02T13:19:35.863Z,7.31
2023-04-02T13:23:38.885Z,7.40
2023-04-02T13:27:43.420Z,7.11
2023-04-02T13:31:46.561Z,7.55
2023-04-02T13:35:49.977Z,7.36
2023-04-02T13:39:53.054Z,7.17
2023-04-02T13:44:00.814Z,7.25
2023-04-02T13:48:04.154Z,7.38
2023-04-02T13:52:15.191Z,7.33
2023-04-02T13:56:19.545Z,7.41
2023-04-02T14:00:24.663Z,7.46
2023-04-02T14:04:32.339Z,7.43
2023-04-02T14:08:47.563Z,7.53
2023-04-02T14:13:04.468Z,7.47
2023-04-02T14:17:19.814Z,7.33
2023-04-02T14:21:32.239Z,7.57
2023-04-02T14:25:44.273Z,7.44
2023-04-02T14:29:52.800Z,7.35
2023-04-02T14:34:04.645Z,7.37
2023-04-02T14:38:17.562Z,7.17
2023-04-02T14:42:28.265Z,7.14
2023-04-02T14:46:35.531Z,7.30
2023-04-02T14:50:43.912Z,7.13
2023-04-02T14:54:52.382Z,7.06
2023-04-02T14:59:05.560Z,7.27
2023-04-02T15:03:16.353Z,7.04
2023-04-02T15:07:25.540Z,7.14
2023-04-02T15:11:33.700Z,7.07
2023-04-02T15:15:43.740Z,6.83
2023-04-02T15:19:48.073Z,7.13
2023-04-02T15:24:01.638Z,9.76
2023-04-02T15:28:23.786Z,9.03
2023-04-02T15:32:36.701Z,8.08
2023-04-02T15:36:56.418Z,7.89
2023-04-02T15:41:05.268Z,7.72
2023-04-02T15:45:23.279Z,9.22
2023-04-02T15:49:42.724Z,9.58
2023-04-02T15:53:58.176Z,9.86
2023-04-02T15:58:22.241Z,10.83
2023-04-02T16:02:41.501Z,10.82
2023-04-02T16:06:57.739Z,9.01
2023-04-02T16:11:01.105Z,9.65
2023-04-02T16:15:15.908Z,8.93
2023-04-02T16:19:27.092Z,9.02
2023-04-02T16:23:35.093Z,8.49
2023-04-02T16:27:43.137Z,8.26
2023-04-02T16:31:53.900Z,8.15
2023-04-02T16:36:08.576Z,8.01
2023-04-02T16:40:23.220Z,7.90
2023-04-02T16:44:37.139Z,8.26
2023-04-02T16:48:50.948Z,8.12
2023-04-02T16:53:03.295Z,7.87
2023-04-02T16:57:19.709Z,7.74
2023-04-02T17:01:29.606Z,7.41
2023-04-02T17:05:39.285Z,7.58
2023-04-02T17:09:50.110Z,8.17
2023-04-02T17:14:06.327Z,8.24
2023-04-02T17:18:17.337Z,7.68
2023-04-02T17:22:23.770Z,8.19
2023-04-02T17:26:30.566Z,8.00
2023-04-02T17:30:39.151Z,8.00
2023-04-02T17:34:42.474Z,7.49
2023-04-02T17:38:58.501Z,7.14
2023-04-02T17:43:11.554Z,6.89
2023-04-02T17:47:21.782Z,6.90
2023-04-02T17:51:33.970Z,6.89
2023-04-02T17:55:49.449Z,6.83
2023-04-02T18:00:02.214Z,6.64
2023-04-02T18:04:28.105Z,6.55
2023-04-02T18:08:42.184Z,6.53
2023-04-02T18:12:57.743Z,6.56
2023-04-02T18:17:13.213Z,6.51
2023-04-02T18:21:24.903Z,6.56
2023-04-02T18:25:48.056Z,6.54
2023-04-02T18:30:00.367Z,6.55
2023-04-02T18:34:35.512Z,6.54
2023-04-02T18:38:45.808Z,6.51
2023-04-02T18:43:00.735Z,6.51
2023-04-02T18:47:15.587Z,6.55
2023-04-02T18:51:23.715Z,6.43
2023-04-02T18:55:30.923Z,6.37
2023-04-02T18:59:39.799Z,6.25
2023-04-02T19:03:51.072Z,6.13
2023-04-02T19:08:04.022Z,6.16
2023-04-02T19:12:20.069Z,6.09
2023-04-02T19:16:50.625Z,6.06
2023-04-02T19:21:17.639Z,6.07
2023-04-02T19:25:37.493Z,5.96
2023-04-02T19:29:53.272Z,5.66
2023-04-02T19:34:03.769Z,5.48
2023-04-02T19:38:17.149Z,5.40
2023-04-02T19:42:34.852Z,5.30
2023-04-02T19:46:39.585Z,4.99
2023-04-02T19:50:43.418Z,4.89
2023-04-02T19:54:48.405Z,4.83
2023-04-02T19:58:51.708Z,4.60
2023-04-02T20:02:55.016Z,4.46
2023-04-02T20:06:58.606Z,4.45
2023-04-02T20:11:04.252Z,4.32
2023-04-02T20:15:08.930Z,4.31
2023-04-02T20:19:12.339Z,4.23
2023-04-02T20:23:18.698Z,4.11
2023-04-02T20:27:23.868Z,3.92
2023-04-02T20:31:27.654Z,3.90
2023-04-02T20:35:36.946Z,3.69
2023-04-02T20:39:41.591Z,3.70
2023-04-02T20:43:46.337Z,3.70
2023-04-02T20:47:49.451Z,3.77
2023-04-02T20:51:54.616Z,3.72
2023-04-02T20:56:04.268Z,3.49
2023-04-02T21:00:12.260Z,3.35
2023-04-02T21:04:15.525Z,3.44
2023-04-02T21:08:21.292Z,3.33
2023-04-02T21:12:28.218Z,3.10
2023-04-02T21:16:34.493Z,2.85
2023-04-02T21:20:37.566Z,2.83
2023-04-02T21:24:42.867Z,2.89
2023-04-02T21:28:46.829Z,2.76
2023-04-02T21:32:51.614Z,2.62
2023-04-02T21:36:56.674Z,2.44
2023-04-02T21:41:11.244Z,2.31
2023-04-02T21:45:15.458Z,2.18
2023-04-02T21:49:22.832Z,1.95
2023-04-02T21:53:27.331Z,1.86
2023-04-02T21:57:30.485Z,1.78
2023-04-02T22:01:36.098Z,1.74
2023-04-02T22:05:41.247Z,1.67
2023-04-02T22:09:44.407Z,1.71
2023-04-02T22:13:49.675Z,1.63
2023-04-02T22:17:53.060Z,1.60
2023-04-02T22:21:58.721Z,1.72
2023-04-02T22:26:02.384Z,1.66
2023-04-02T22:30:07.527Z,1.49
2023-04-02T22:34:11.064Z,1.42
2023-04-02T22:38:16.003Z,1.35
2023-04-02T22:42:20.420Z,1.33
2023-04-02T22:46:24.444Z,1.30
2023-04-02T22:50:27.724Z,1.14
2023-04-02T22:54:32.260Z,1.09
2023-04-02T22:58:35.955Z,1.13
2023-04-02T23:02:39.544Z,1.04
2023-04-02T23:06:42.829Z,0.99
2023-04-02T23:10:47.635Z,0.99
2023-04-02T23:14:51.215Z,0.98
2023-04-02T23:18:55.950Z,0.90
2023-04-02T23:22:59.163Z,0.79
2023-04-02T23:27:03.744Z,0.78
2023-04-02T23:31:09.099Z,0.73
2023-04-02T23:35:12.626Z,0.90
2023-04-02T23:39:16.134Z,0.80
2023-04-02T23:43:20.813Z,1.07
2023-04-02T23:47:24.310Z,1.11
2023-04-02T23:51:29.082Z,1.26
2023-04-02T23:55:32.391Z,1.47
2023-04-02T23:59:37.210Z,1.29
